Jackson, MI

3:33 AM EDT on August 28, 2014 (GMT -0400)
Mason Jewett | Change Station
CLOSE
Current Station
Airport
Location: Mason,
Elevation: 919 ft
Nearby Weather Stations

Elev 919 ft 42.57 °N, 84.42 °W | Updated 22 minutes ago

Scattered Clouds
Scattered Clouds
58 °F
Feels Like 58 °F
N
5
Wind Variable Wind from NNE

Today
High -- | Low -- °F
--% Chance of Precip.
Yesterday
High -- | Low -- °F
Precip. -- in
6:58 AM 8:18 PM
Waxing Crescent, 7% visible
Pressure 30.14 in
Visibility 10.0 miles
Clouds Scattered Clouds 3800 ft
Dew Point 54 °F
Humidity 86%
Rainfall 0.00 in
Snow Depth Not available.
UV 0 out of 12
Pollen 9.00 out of 12
Ozone Good
PM2.5 Good
Flu Activity Not available.
METAR KTEW 280711Z AUTO 02004KT 10SM SCT038 15/12 A3014 RMK AO2 T01450121

More Conditions Fewer Conditions

Pressure 30.14 in
Visibility 10.0 miles
Clouds Scattered Clouds 3800 ft
Dew Point 54 °F
Humidity 86%
Rainfall 0.00 in
Snow Depth Not available.
UV 0 out of 12
Pollen 9.00 out of 12
Ozone Good
PM2.5 Good
Flu Activity Not available.
METAR KTEW 280711Z AUTO 02004KT 10SM SCT038 15/12 A3014 RMK AO2 T01450121

More Conditions Fewer Conditions

10-Day Weather Forecast

Almanac

Astronomy

Aug. 28, 2014 Rise Set
Actual Time 6:58 AM EDT 8:18 PM EDT
Civil Twilight 6:29 AM EDT 8:47 PM EDT
Nautical Twilight 5:54 AM EDT 9:21 PM EDT
Astronomical Twilight 5:17 AM EDT 9:58 PM EDT
Moon 9:54 AM EDT 9:37 PM EDT
Length of Visible Light 14h 17m
Length of Day
13h 19m
Tomorrow will be 2m 42s shorter.
Waxing Crescent, 7% of the Moon is Illuminated
Today
Waxing Crescent
Sep 2
First Quarter
Sep 8
Full
Sep 15
Last Quarter
Sep 24
New

Today's Extremes

State Highs State Lows

Community

WunderPhotos

Upload Photos

1,747,912 photos uploaded!

Nearby

Air Quality

  Air Quality AQ Index Pollutant
Yesterday Good
PM2.5
Yesterday Good
OZONE
Current Good
PM2.5
Current Good
OZONE
Thursday Good
OZONE
Thursday Good
PM2.5
Friday Good
OZONE
Friday Good
PM2.5

Snow Depth

Station Depth Elevation
No new snow has been reported.

Earthquake Activity

City Distance Mag. Time & Date
No recent earthquake activity has been reported nearby.
Minimum magnitude displayed is 2.5.

Coastal Water Temperatures

Place Temperature
No Stations Reporting

Nearby Weather Stations